Time;durP1;ratioP1;P1;durP2;ratioP2;P2;SDS_P1;SDS_P2;PMS_P1;PMS_P2;Temp;Humidity;BMP_temperature;BMP_pressure;BME280_temperature;BME280_humidity;BME280_pressure;Samples;Min_cycle;Max_cycle;Signal;HPM_P1;HPM_P2
2022/03/25 00:00:53;;;;;;;28.27;18.67;;;;;;;7.11;51.61;102471.41;4975904;28;20447;-57
2022/03/25 00:03:21;;;;;;;28.10;19.53;;;;;;;7.11;51.76;102471.41;4980143;28;20311;-57
2022/03/25 00:05:47;;;;;;;25.30;18.30;;;;;;;6.99;51.70;102473.53;4970462;28;20234;-54
2022/03/25 00:08:14;;;;;;;23.87;17.10;;;;;;;6.94;52.60;102469.81;4979332;28;20587;-55
2022/03/25 00:10:40;;;;;;;27.10;19.13;;;;;;;6.89;53.61;102468.75;4979275;28;20778;-56
2022/03/25 00:13:07;;;;;;;29.57;20.50;;;;;;;6.85;53.95;102467.72;4983894;28;20229;-55
2022/03/25 00:15:33;;;;;;;26.20;20.57;;;;;;;6.72;54.62;102472.34;4983675;28;20240;-55
2022/03/25 00:17:59;;;;;;;34.40;21.90;;;;;;;6.62;55.08;102471.94;4985728;28;20249;-56
2022/03/25 00:20:27;;;;;;;24.43;20.37;;;;;;;6.53;55.53;102468.97;4954654;28;20242;-55
2022/03/25 00:22:53;;;;;;;33.67;21.40;;;;;;;6.43;56.47;102469.38;4975961;28;20253;-55
2022/03/25 00:25:20;;;;;;;35.43;22.93;;;;;;;6.40;56.23;102466.63;4962552;28;20642;-57
2022/03/25 00:27:46;;;;;;;31.57;20.83;;;;;;;6.35;55.74;102465.53;4984395;28;20245;-56
2022/03/25 00:30:13;;;;;;;26.47;19.70;;;;;;;6.28;56.11;102455.63;4976919;28;20226;-55
2022/03/25 00:32:40;;;;;;;30.17;21.47;;;;;;;6.28;56.02;102455.63;4984897;28;20288;-55
2022/03/25 00:35:08;;;;;;;24.47;17.70;;;;;;;6.24;56.04;102449.41;4972862;28;20317;-55
2022/03/25 00:37:36;;;;;;;26.57;19.57;;;;;;;6.26;55.86;102454.69;4984426;28;20245;-55
2022/03/25 00:40:02;;;;;;;26.10;19.77;;;;;;;6.29;55.30;102452.22;4981461;28;20320;-55
2022/03/25 00:42:30;;;;;;;34.97;22.83;;;;;;;6.32;55.35;102450.66;4983928;28;20728;-56
2022/03/25 00:44:56;;;;;;;31.80;20.83;;;;;;;6.34;54.45;102450.69;4975925;28;20901;-56
2022/03/25 00:47:23;;;;;;;31.97;19.80;;;;;;;6.36;54.59;102449.06;4979894;28;20778;-56
2022/03/25 00:49:50;;;;;;;29.73;18.57;;;;;;;6.39;54.51;102446.59;4980348;28;20664;-56
2022/03/25 00:52:16;;;;;;;26.53;19.10;;;;;;;6.41;54.55;102444.94;4985403;28;20233;-55
2022/03/25 00:54:44;;;;;;;25.70;18.37;;;;;;;6.40;54.67;102446.66;4970736;28;20233;-54
2022/03/25 00:57:11;;;;;;;25.87;18.37;;;;;;;6.38;54.08;102435.25;4965440;28;20243;-55
2022/03/25 00:59:37;;;;;;;27.07;18.90;;;;;;;6.41;54.01;102442.31;4982424;28;20241;-56
2022/03/25 01:02:04;;;;;;;22.70;16.87;;;;;;;6.43;54.75;102438.06;4976401;28;20250;-56
2022/03/25 01:04:30;;;;;;;26.13;20.10;;;;;;;6.45;57.12;102446.84;4964783;28;20293;-56
2022/03/25 01:06:57;;;;;;;25.80;17.63;;;;;;;6.37;57.39;102436.06;4984894;28;20775;-56
2022/03/25 01:09:23;;;;;;;23.80;17.57;;;;;;;6.34;57.38;102440.25;4985254;28;20241;-56
2022/03/25 01:11:51;;;;;;;24.63;18.87;;;;;;;6.31;57.71;102442.75;4985600;28;20866;-55
2022/03/25 01:14:18;;;;;;;23.37;18.33;;;;;;;6.26;57.71;102439.06;4984233;28;20280;-55
2022/03/25 01:16:44;;;;;;;25.07;18.77;;;;;;;6.28;57.09;102442.59;4984422;28;20680;-56
2022/03/25 01:19:11;;;;;;;24.97;18.50;;;;;;;6.18;56.88;102437.00;4984507;28;20264;-57
2022/03/25 01:21:37;;;;;;;25.77;18.83;;;;;;;6.09;57.54;102433.97;4984574;28;20289;-55
2022/03/25 01:24:05;;;;;;;25.13;19.10;;;;;;;6.06;58.80;102432.94;4984648;28;20229;-57
2022/03/25 01:26:31;;;;;;;29.27;22.27;;;;;;;6.12;59.76;102439.31;4984369;28;20597;-60
2022/03/25 01:28:59;;;;;;;28.93;23.70;;;;;;;6.00;59.43;102432.66;4985139;28;20679;-56
2022/03/25 01:31:26;;;;;;;31.50;23.93;;;;;;;5.85;59.99;102430.22;4983107;28;20898;-55
2022/03/25 01:33:52;;;;;;;33.17;23.00;;;;;;;5.74;60.78;102428.00;4984693;28;20299;-55
2022/03/25 01:36:20;;;;;;;32.90;23.60;;;;;;;5.65;60.21;102429.28;4981413;28;20242;-56
2022/03/25 01:38:46;;;;;;;25.73;21.30;;;;;;;5.53;60.06;102432.22;4983721;28;20712;-56
2022/03/25 01:41:16;;;;;;;31.93;22.93;;;;;;;5.46;60.38;102427.56;4984533;28;20229;-56
2022/03/25 01:43:43;;;;;;;29.57;21.93;;;;;;;5.41;59.38;102431.69;4983962;28;20234;-56
2022/03/25 01:46:11;;;;;;;39.33;25.77;;;;;;;5.36;59.00;102433.16;4981733;28;20246;-56
2022/03/25 01:48:38;;;;;;;32.30;22.87;;;;;;;5.29;58.80;102431.06;4984377;28;20452;-56
2022/03/25 01:51:04;;;;;;;30.07;22.53;;;;;;;5.24;58.49;102434.34;4984003;28;20234;-56
2022/03/25 01:53:30;;;;;;;33.00;21.30;;;;;;;5.22;58.96;102430.78;4985244;28;20234;-56
2022/03/25 01:55:58;;;;;;;29.73;19.67;;;;;;;5.27;59.07;102436.22;4984722;28;20292;-58
2022/03/25 01:58:26;;;;;;;24.03;18.60;;;;;;;5.26;59.08;102435.34;4984639;28;20237;-56
2022/03/25 02:00:53;;;;;;;25.30;18.73;;;;;;;5.30;59.62;102438.06;4981039;28;20249;-56
2022/03/25 02:03:21;;;;;;;35.07;20.50;;;;;;;5.32;59.41;102436.44;4983816;28;20230;-55
2022/03/25 02:05:48;;;;;;;29.37;20.47;;;;;;;5.37;59.58;102424.50;4987371;28;20238;-55
2022/03/25 02:08:15;;;;;;;26.10;17.20;;;;;;;5.39;59.73;102422.88;4987575;28;20261;-55
2022/03/25 02:10:42;;;;;;;28.20;18.60;;;;;;;5.42;59.85;102430.84;4986998;28;20726;-56
2022/03/25 02:13:09;;;;;;;26.10;17.63;;;;;;;5.47;59.01;102425.00;4987635;28;20233;-54
2022/03/25 02:15:40;;;;;;;26.97;18.13;;;;;;;5.50;59.50;102429.47;4986998;28;20724;-54
2022/03/25 02:18:10;;;;;;;26.90;18.67;;;;;;;5.49;60.75;102433.81;4984878;28;20240;-56
2022/03/25 02:20:38;;;;;;;27.40;19.87;;;;;;;5.46;61.83;102427.56;4987309;28;20288;-55
2022/03/25 02:23:07;;;;;;;26.97;19.40;;;;;;;5.42;62.76;102430.84;4987833;28;20230;-56
2022/03/25 02:25:33;;;;;;;28.07;18.43;;;;;;;5.41;62.83;102429.06;4985931;28;20233;-56
2022/03/25 02:28:01;;;;;;;26.63;19.30;;;;;;;5.39;62.88;102430.69;4988048;28;20242;-56
2022/03/25 02:30:28;;;;;;;25.87;18.27;;;;;;;5.36;62.20;102431.44;4979465;28;20670;-55
2022/03/25 02:32:57;;;;;;;29.00;18.70;;;;;;;5.34;62.53;102424.38;4986700;28;20234;-55
2022/03/25 02:35:36;;;;;;;27.43;18.33;;;;;;;5.31;63.38;102432.06;4976986;28;20245;-56
2022/03/25 02:38:02;;;;;;;23.37;19.40;;;;;;;5.24;64.47;102423.94;4979741;28;20902;-55
2022/03/25 02:40:30;;;;;;;23.50;17.50;;;;;;;5.20;65.59;102429.81;4987517;28;20292;-55
2022/03/25 02:42:56;;;;;;;25.93;18.13;;;;;;;5.13;65.40;102422.53;4986938;28;20242;-55
2022/03/25 02:45:23;;;;;;;29.60;19.63;;;;;;;5.12;65.88;102431.16;4986744;28;20245;-56
2022/03/25 02:47:49;;;;;;;43.37;20.17;;;;;;;5.10;66.87;102430.19;4986987;28;20755;-55
2022/03/25 02:50:16;;;;;;;28.27;19.63;;;;;;;5.10;66.07;102425.00;4986388;28;20234;-55
2022/03/25 02:52:42;;;;;;;25.63;18.17;;;;;;;5.13;66.30;102421.66;4985604;28;20758;-56
2022/03/25 02:55:09;;;;;;;25.53;19.17;;;;;;;5.14;66.43;102429.53;4986556;28;20757;-56
2022/03/25 02:57:37;;;;;;;27.43;17.97;;;;;;;5.12;67.02;102430.25;4986041;28;20232;-55
2022/03/25 03:00:08;;;;;;;22.90;18.07;;;;;;;5.07;67.48;102422.22;4987049;28;20269;-55
2022/03/25 03:02:34;;;;;;;25.53;17.33;;;;;;;5.05;67.10;102422.97;4987111;28;20261;-56
2022/03/25 03:05:00;;;;;;;21.83;15.80;;;;;;;5.02;66.85;102428.94;4987181;28;20762;-54
2022/03/25 03:07:27;;;;;;;25.70;18.10;;;;;;;5.02;67.68;102426.34;4986536;28;20649;-55
2022/03/25 03:09:53;;;;;;;24.30;18.07;;;;;;;5.00;67.94;102430.56;4985266;28;20299;-56
2022/03/25 03:12:19;;;;;;;27.23;18.73;;;;;;;4.98;68.72;102419.16;4986701;28;20285;-55
2022/03/25 03:14:47;;;;;;;27.20;18.63;;;;;;;4.99;68.50;102418.38;4986230;28;20266;-55
2022/03/25 03:17:15;;;;;;;25.13;18.17;;;;;;;5.02;68.67;102423.75;4987636;28;20318;-56
2022/03/25 03:19:41;;;;;;;21.80;17.13;;;;;;;5.05;68.05;102423.84;4989235;28;20243;-56
2022/03/25 03:22:07;;;;;;;24.87;17.43;;;;;;;5.11;68.54;102428.47;4974860;28;20262;-56
2022/03/25 03:24:34;;;;;;;23.43;16.77;;;;;;;5.13;67.68;102422.53;4977791;28;20234;-56
2022/03/25 03:27:00;;;;;;;26.73;18.57;;;;;;;5.21;67.20;102423.78;4982237;28;20331;-56
2022/03/25 03:29:27;;;;;;;25.00;17.90;;;;;;;5.29;67.18;102423.25;4986520;28;20241;-56
2022/03/25 03:31:55;;;;;;;25.10;18.30;;;;;;;5.33;66.91;102433.00;4977382;28;20879;-56
2022/03/25 03:34:21;;;;;;;25.07;17.60;;;;;;;5.33;66.80;102430.41;4966528;28;20246;-55
2022/03/25 03:36:47;;;;;;;22.40;16.50;;;;;;;5.40;67.43;102432.47;4965979;28;20774;-56
2022/03/25 03:39:14;;;;;;;22.47;18.37;;;;;;;5.55;67.11;102434.94;4982117;28;20278;-56
2022/03/25 03:41:40;;;;;;;28.03;20.27;;;;;;;5.56;67.73;102435.00;4979454;28;20237;-56
2022/03/25 03:44:07;;;;;;;27.93;20.47;;;;;;;5.42;67.96;102431.72;4978416;28;20456;-55
2022/03/25 03:46:56;;;;;;;30.53;21.93;;;;;;;5.35;69.12;102444.41;4986750;28;20242;-63
2022/03/25 03:49:23;;;;;;;31.83;23.43;;;;;;;5.17;70.42;102439.19;4974789;28;20393;-54
2022/03/25 03:51:49;;;;;;;33.90;22.83;;;;;;;5.01;69.97;102442.75;4984653;28;20241;-53
2022/03/25 03:54:16;;;;;;;32.03;22.53;;;;;;;4.84;70.14;102448.81;4975972;28;20709;-53
2022/03/25 03:56:42;;;;;;;35.27;20.33;;;;;;;4.71;70.05;102448.22;4983432;28;20233;-53
2022/03/25 03:59:08;;;;;;;29.07;20.13;;;;;;;4.65;70.78;102452.22;4966000;28;20791;-55
2022/03/25 04:01:35;;;;;;;22.60;18.80;;;;;;;4.57;71.00;102451.84;4967973;28;20249;-54
2022/03/25 04:04:03;;;;;;;24.60;18.13;;;;;;;4.53;71.50;102447.31;4967123;28;20230;-54
2022/03/25 04:06:29;;;;;;;27.60;18.07;;;;;;;4.55;71.00;102448.25;4970179;28;20815;-53
2022/03/25 04:08:57;;;;;;;27.07;17.23;;;;;;;4.53;71.36;102455.09;4976668;28;20290;-53
2022/03/25 04:11:23;;;;;;;25.73;18.83;;;;;;;4.53;71.76;102457.72;4966256;28;20242;-55
2022/03/25 04:13:50;;;;;;;23.97;18.10;;;;;;;4.54;72.30;102454.28;4965108;28;20246;-53
2022/03/25 04:16:16;;;;;;;26.83;18.63;;;;;;;4.63;72.20;102448.63;4967946;28;20716;-54
2022/03/25 04:18:43;;;;;;;26.77;18.40;;;;;;;4.63;72.19;102448.63;4976717;28;20246;-53
2022/03/25 04:21:10;;;;;;;32.07;19.93;;;;;;;4.58;72.91;102456.22;4966361;28;20231;-53
2022/03/25 04:23:37;;;;;;;23.40;18.77;;;;;;;4.57;72.79;102453.56;4969911;28;20313;-54
2022/03/25 04:26:04;;;;;;;29.20;18.30;;;;;;;4.57;73.49;102448.34;4964943;28;20266;-52
2022/03/25 04:28:30;;;;;;;24.37;18.03;;;;;;;4.54;73.59;102454.28;4974138;28;20261;-54
2022/03/25 04:30:57;;;;;;;25.33;18.83;;;;;;;4.52;73.79;102455.91;4964497;28;20238;-53
2022/03/25 04:33:23;;;;;;;26.87;18.27;;;;;;;4.51;73.92;102448.91;4968433;28;20241;-58
2022/03/25 04:35:49;;;;;;;23.43;19.27;;;;;;;4.48;74.04;102454.84;4965040;28;20269;-53
2022/03/25 04:38:17;;;;;;;28.50;17.47;;;;;;;4.48;74.13;102453.97;4967359;28;20239;-53
2022/03/25 04:40:43;;;;;;;27.00;18.27;;;;;;;4.53;73.46;102453.41;4962842;28;20235;-54
2022/03/25 04:43:10;;;;;;;26.20;17.60;;;;;;;4.55;72.08;102461.25;4969701;28;20278;-53
2022/03/25 04:45:37;;;;;;;30.17;18.57;;;;;;;4.60;71.16;102452.00;4964404;28;20231;-53
2022/03/25 04:48:04;;;;;;;23.97;17.73;;;;;;;4.59;70.86;102452.78;4966216;28;20241;-53
2022/03/25 04:50:31;;;;;;;25.37;18.00;;;;;;;4.57;71.60;102461.34;4955834;28;20230;-52
2022/03/25 04:52:58;;;;;;;29.60;19.23;;;;;;;4.61;72.09;102460.69;4969059;28;20238;-53
2022/03/25 04:55:25;;;;;;;31.83;19.37;;;;;;;4.60;72.43;102465.00;4965775;28;20321;-52
2022/03/25 04:57:52;;;;;;;30.13;18.93;;;;;;;4.65;73.89;102463.53;4969915;28;20385;-53
2022/03/25 05:00:18;;;;;;;26.20;19.67;;;;;;;4.62;74.05;102467.69;4966909;28;20464;-53
2022/03/25 05:02:45;;;;;;;21.80;17.17;;;;;;;4.50;73.65;102467.94;4973875;28;20240;-54
2022/03/25 05:05:12;;;;;;;24.30;18.40;;;;;;;4.45;73.83;102467.69;4964654;28;20690;-54
2022/03/25 05:07:41;;;;;;;24.83;18.70;;;;;;;4.46;73.28;102471.22;4961377;28;20925;-54
2022/03/25 05:10:11;;;;;;;25.50;18.03;;;;;;;4.45;72.79;102469.41;4959336;28;20655;-54
2022/03/25 05:12:39;;;;;;;22.57;17.20;;;;;;;4.45;72.12;102469.41;4970489;28;20738;-53
2022/03/25 05:15:06;;;;;;;23.27;17.27;;;;;;;4.48;71.96;102474.78;4950906;28;20231;-54
2022/03/25 05:17:32;;;;;;;27.53;17.43;;;;;;;4.51;71.66;102469.72;4968528;28;20273;-53
2022/03/25 05:19:59;;;;;;;30.57;19.67;;;;;;;4.57;72.64;102475.25;4975875;28;20230;-54
2022/03/25 05:22:26;;;;;;;26.03;18.10;;;;;;;4.60;73.64;102475.41;4965261;28;20250;-55
2022/03/25 05:24:52;;;;;;;25.53;17.73;;;;;;;4.55;73.96;102472.56;4958365;28;20382;-53
2022/03/25 05:27:19;;;;;;;32.17;20.07;;;;;;;4.61;74.67;102473.69;4956465;28;20736;-54
2022/03/25 05:29:46;;;;;;;27.43;19.67;;;;;;;4.54;74.69;102475.09;4961430;28;20757;-54
2022/03/25 05:32:13;;;;;;;27.60;19.00;;;;;;;4.51;74.53;102470.63;4952592;28;20283;-55
2022/03/25 05:34:40;;;;;;;24.97;18.07;;;;;;;4.50;75.08;102483.56;4966618;28;20274;-54
2022/03/25 05:37:06;;;;;;;27.00;19.10;;;;;;;4.54;74.13;102480.28;4955640;28;20306;-53
2022/03/25 05:39:33;;;;;;;29.07;18.63;;;;;;;4.53;73.70;102475.91;4965940;28;20242;-55
2022/03/25 05:41:59;;;;;;;27.43;18.63;;;;;;;4.59;73.63;102481.41;4969657;28;20238;-53
2022/03/25 05:44:26;;;;;;;28.50;19.53;;;;;;;4.53;73.73;102481.13;4972241;28;20343;-54
2022/03/25 05:46:53;;;;;;;22.77;17.90;;;;;;;4.51;74.13;102475.81;4960463;28;20301;-54
2022/03/25 05:49:20;;;;;;;32.40;20.17;;;;;;;4.54;73.94;102481.19;4968566;28;20234;-53
2022/03/25 05:51:47;;;;;;;28.87;19.33;;;;;;;4.56;74.25;102486.44;4967372;28;20234;-53
2022/03/25 05:54:13;;;;;;;28.50;19.43;;;;;;;4.56;74.60;102489.06;4972644;28;20230;-53
2022/03/25 05:56:40;;;;;;;26.37;20.20;;;;;;;4.69;73.33;102485.38;4968119;28;20304;-55
2022/03/25 05:59:06;;;;;;;26.93;19.17;;;;;;;4.75;73.67;102488.31;4960605;28;20893;-54
2022/03/25 06:01:32;;;;;;;38.53;21.67;;;;;;;4.81;73.10;102498.13;4965947;28;20854;-54
2022/03/25 06:04:00;;;;;;;31.40;19.50;;;;;;;4.74;73.51;102489.13;4967778;28;20238;-54
2022/03/25 06:06:27;;;;;;;23.93;17.47;;;;;;;4.70;72.85;102490.69;4967938;28;20242;-53
2022/03/25 06:08:53;;;;;;;31.80;18.77;;;;;;;4.71;73.42;102484.66;4961053;28;20242;-53
2022/03/25 06:11:19;;;;;;;29.10;17.27;;;;;;;4.72;73.36;102486.44;4961987;28;20294;-54
2022/03/25 06:13:46;;;;;;;31.97;20.40;;;;;;;4.78;72.37;102486.75;4969571;28;20736;-53
2022/03/25 06:16:12;;;;;;;23.77;18.53;;;;;;;4.79;71.90;102488.53;4966627;28;20235;-54
2022/03/25 06:18:38;;;;;;;26.57;17.50;;;;;;;4.94;69.57;102483.19;4961938;28;20837;-54
2022/03/25 06:21:06;;;;;;;28.67;18.27;;;;;;;5.00;69.30;102487.81;4965687;28;20907;-55
2022/03/25 06:23:33;;;;;;;28.93;19.07;;;;;;;5.10;68.66;102491.78;4973768;28;20317;-53
2022/03/25 06:26:00;;;;;;;31.80;18.63;;;;;;;5.11;68.42;102497.06;4957722;28;20262;-53
2022/03/25 06:28:26;;;;;;;28.50;18.20;;;;;;;5.11;69.39;102501.38;4965624;28;20247;-53
2022/03/25 06:30:53;;;;;;;28.70;19.47;;;;;;;5.14;69.28;102497.22;4967525;28;20224;-54
2022/03/25 06:33:19;;;;;;;30.63;19.07;;;;;;;5.21;68.77;102499.31;4965489;28;20258;-54
2022/03/25 06:35:45;;;;;;;29.33;20.27;;;;;;;5.33;68.57;102504.22;4960052;28;20289;-52
2022/03/25 06:38:13;;;;;;;30.57;20.07;;;;;;;5.39;68.61;102499.31;4968662;28;20790;-53
2022/03/25 06:40:40;;;;;;;27.37;20.60;;;;;;;5.67;66.48;102503.22;4966346;28;20886;-54
2022/03/25 06:43:06;;;;;;;32.87;21.17;;;;;;;5.72;65.87;102502.66;4964803;28;20238;-54
2022/03/25 06:45:33;;;;;;;28.33;21.07;;;;;;;5.83;65.56;102510.06;4962749;28;20238;-53
2022/03/25 06:47:59;;;;;;;42.43;23.17;;;;;;;5.96;64.96;102504.63;4959005;28;20246;-53
2022/03/25 06:50:26;;;;;;;35.87;21.50;;;;;;;5.93;65.20;102510.63;4976306;28;21021;-52
2022/03/25 06:52:53;;;;;;;33.50;21.63;;;;;;;6.08;65.01;102507.81;4969026;28;20728;-53
2022/03/25 06:55:21;;;;;;;35.47;21.23;;;;;;;6.09;64.93;102514.81;4957168;28;20322;-54
2022/03/25 06:57:49;;;;;;;32.10;19.87;;;;;;;6.10;64.59;102519.19;4964735;28;20235;-54
2022/03/25 07:00:16;;;;;;;34.63;19.33;;;;;;;6.19;64.03;102517.00;4967722;28;20230;-53
2022/03/25 07:02:43;;;;;;;27.27;18.73;;;;;;;6.29;63.54;102509.63;4959919;28;20262;-53
2022/03/25 07:05:11;;;;;;;34.63;19.87;;;;;;;6.36;63.13;102522.09;4970256;28;20251;-53
2022/03/25 07:07:40;;;;;;;33.30;19.57;;;;;;;6.51;62.71;102527.13;4963036;28;20771;-53
2022/03/25 07:10:07;;;;;;;25.03;18.37;;;;;;;6.71;61.85;102526.28;4974530;28;20755;-54
2022/03/25 07:12:36;;;;;;;27.87;19.00;;;;;;;6.87;61.05;102520.88;4975609;28;20238;-53
2022/03/25 07:15:02;;;;;;;29.83;20.87;;;;;;;7.01;60.82;102528.41;4975144;28;20234;-54
2022/03/25 07:17:30;;;;;;;26.03;19.10;;;;;;;7.08;60.26;102539.16;4957094;28;20238;-54
2022/03/25 07:19:56;;;;;;;28.70;18.97;;;;;;;7.14;60.07;102534.22;4966332;28;20234;-54
2022/03/25 07:22:22;;;;;;;31.23;18.80;;;;;;;7.31;58.83;102536.66;4958843;28;20251;-54
2022/03/25 07:24:49;;;;;;;24.10;16.50;;;;;;;7.38;58.44;102543.91;4967630;28;20294;-52
2022/03/25 07:27:15;;;;;;;32.03;19.17;;;;;;;7.57;57.17;102537.69;4966427;28;20239;-53
2022/03/25 07:29:43;;;;;;;27.93;16.77;;;;;;;7.69;56.17;102539.91;4968614;28;20238;-54
2022/03/25 07:32:09;;;;;;;27.77;16.97;;;;;;;7.84;55.25;102540.53;4958851;28;20242;-54
2022/03/25 07:34:37;;;;;;;23.53;16.90;;;;;;;8.04;53.99;102539.56;4964856;28;20226;-54
2022/03/25 07:37:04;;;;;;;29.87;17.47;;;;;;;8.08;54.47;102537.97;4968707;28;20910;-53
2022/03/25 07:39:30;;;;;;;28.13;17.23;;;;;;;8.13;54.26;102544.25;4964171;28;20218;-53
2022/03/25 07:41:57;;;;;;;26.73;18.07;;;;;;;8.39;53.19;102545.28;4970625;28;20242;-54
2022/03/25 07:44:24;;;;;;;26.90;17.37;;;;;;;8.48;53.22;102547.34;4967957;28;20230;-56
2022/03/25 07:46:51;;;;;;;29.30;16.83;;;;;;;8.52;53.15;102547.50;4964566;28;20893;-54
2022/03/25 07:49:18;;;;;;;32.90;17.53;;;;;;;8.75;52.42;102544.84;4967380;28;20317;-53
2022/03/25 07:51:44;;;;;;;33.70;17.67;;;;;;;8.90;52.30;102540.13;4964672;28;20235;-54
2022/03/25 07:54:11;;;;;;;24.63;16.13;;;;;;;9.07;51.31;102545.94;4966808;28;20279;-53
2022/03/25 07:56:37;;;;;;;24.30;17.23;;;;;;;9.15;51.60;102543.59;4965662;28;20241;-54
2022/03/25 07:59:04;;;;;;;26.50;16.47;;;;;;;9.29;51.17;102551.06;4968343;28;20241;-53
2022/03/25 08:01:30;;;;;;;25.87;17.40;;;;;;;9.35;51.92;102547.78;4964603;28;20246;-53
2022/03/25 08:03:58;;;;;;;32.17;17.63;;;;;;;9.60;51.18;102552.09;4966085;28;20642;-53
2022/03/25 08:06:24;;;;;;;28.03;16.67;;;;;;;9.74;50.38;102550.78;4961543;28;20238;-53
2022/03/25 08:08:51;;;;;;;31.87;18.23;;;;;;;9.93;49.35;102544.41;4967433;28;20248;-53
2022/03/25 08:11:18;;;;;;;38.10;19.07;;;;;;;10.17;48.40;102543.34;4969668;28;20397;-53
2022/03/25 08:13:44;;;;;;;31.03;18.40;;;;;;;10.27;47.91;102550.69;4967359;28;20625;-54
2022/03/25 08:16:11;;;;;;;31.90;17.93;;;;;;;10.33;48.28;102549.97;4972376;28;20230;-53
2022/03/25 08:18:37;;;;;;;29.03;17.63;;;;;;;10.46;47.95;102553.00;4964060;28;20238;-55
2022/03/25 08:21:05;;;;;;;28.70;18.40;;;;;;;10.82;46.50;102561.88;4962177;28;20262;-54
2022/03/25 08:29:00;;;;;;;30.40;18.13;;;;;;;11.37;43.68;102566.84;4965305;28;20751;-53
2022/03/25 08:31:28;;;;;;;31.13;17.80;;;;;;;11.59;43.92;102560.38;4964987;28;20768;-52
2022/03/25 08:33:55;;;;;;;40.47;20.93;;;;;;;11.73;43.64;102552.81;4977049;28;20231;-53
2022/03/25 08:36:23;;;;;;;30.38;18.63;;;;;;;11.87;43.14;102569.84;4963820;28;20273;-54
2022/03/25 08:38:50;;;;;;;28.53;17.77;;;;;;;11.97;43.01;102567.38;4964461;28;20269;-53
2022/03/25 08:41:16;;;;;;;33.92;22.50;;;;;;;12.06;42.84;102563.22;4960114;28;20837;-53
2022/03/25 08:43:43;;;;;;;29.42;18.02;;;;;;;12.02;43.61;102561.38;4970169;28;20241;-53
2022/03/25 08:46:09;;;;;;;25.38;17.08;;;;;;;12.15;43.08;102559.94;4969824;28;20969;-53
2022/03/25 08:48:35;;;;;;;30.05;19.80;;;;;;;12.38;42.82;102565.66;4962810;28;20656;-54
2022/03/25 08:51:02;;;;;;;32.25;20.20;;;;;;;12.50;42.87;102570.31;4964627;28;20290;-53
2022/03/25 08:53:41;;;;;;;30.63;19.08;;;;;;;12.54;42.87;102566.88;4959782;28;20245;-53
2022/03/25 08:56:10;;;;;;;26.90;19.02;;;;;;;12.68;42.60;102569.81;4981611;28;20266;-54
2022/03/25 08:58:36;;;;;;;30.75;19.02;;;;;;;12.71;43.13;102578.66;4976922;28;20575;-53
2022/03/25 09:01:03;;;;;;;28.05;19.77;;;;;;;12.63;43.35;102561.78;4978796;28;20288;-54
2022/03/25 09:03:29;;;;;;;31.63;19.77;;;;;;;12.66;43.40;102564.47;4973340;28;20242;-54
2022/03/25 09:05:56;;;;;;;33.10;20.88;;;;;;;12.80;43.11;102568.28;4970107;28;20297;-55
2022/03/25 09:08:23;;;;;;;31.20;21.85;;;;;;;12.98;43.58;102569.47;4964786;28;20242;-55
2022/03/25 09:10:53;;;;;;;27.70;21.00;;;;;;;13.25;42.97;102564.75;4970359;28;20305;-55
2022/03/25 09:13:19;;;;;;;31.13;22.10;;;;;;;13.31;43.29;102564.84;4966514;28;20329;-54
2022/03/25 09:15:49;;;;;;;34.20;23.30;;;;;;;13.58;42.90;102564.44;4971369;28;20370;-54
2022/03/25 09:18:15;;;;;;;36.78;21.95;;;;;;;13.67;42.84;102573.34;4961594;28;20312;-53
2022/03/25 09:20:41;;;;;;;30.30;22.02;;;;;;;13.84;42.44;102572.75;4967933;28;20238;-53
2022/03/25 09:23:08;;;;;;;36.17;23.42;;;;;;;13.99;42.19;102571.19;4966687;28;20757;-53
2022/03/25 09:25:35;;;;;;;38.97;22.70;;;;;;;14.14;42.20;102571.41;4978016;28;20240;-52
2022/03/25 09:28:05;;;;;;;36.15;23.67;;;;;;;14.21;42.07;102570.59;4985189;28;20242;-53
2022/03/25 09:30:31;;;;;;;39.08;22.98;;;;;;;14.25;41.98;102569.81;4972447;28;20285;-53
2022/03/25 09:32:58;;;;;;;34.60;21.58;;;;;;;14.29;41.95;102568.97;4966301;28;20238;-52
2022/03/25 09:35:25;;;;;;;35.60;22.25;;;;;;;14.22;42.09;102567.13;4970890;28;20234;-55
2022/03/25 09:37:52;;;;;;;36.92;23.88;;;;;;;14.38;42.18;102570.84;4973873;28;20231;-55
2022/03/25 09:40:21;;;;;;;39.15;25.27;;;;;;;14.61;42.12;102568.53;4972326;28;20303;-53
2022/03/25 09:42:48;;;;;;;35.60;24.92;;;;;;;14.69;41.65;102569.50;4968299;28;20407;-53
2022/03/25 09:45:16;;;;;;;32.75;23.17;;;;;;;14.91;40.93;102567.06;4967859;28;20242;-53
2022/03/25 09:47:43;;;;;;;36.03;22.75;;;;;;;14.85;41.52;102564.34;4979505;22;20245;-52
2022/03/25 09:50:12;;;;;;;36.97;23.42;;;;;;;14.94;41.16;102572.41;4966426;28;20296;-53
2022/03/25 09:52:39;;;;;;;32.85;22.65;;;;;;;14.83;41.43;102568.75;4967187;28;20613;-51
2022/03/25 09:55:07;;;;;;;33.30;22.88;;;;;;;14.91;41.63;102572.38;4967762;28;20242;-51
2022/03/25 09:57:33;;;;;;;35.25;23.63;;;;;;;15.03;41.32;102569.88;4986165;28;20246;-52
2022/03/25 10:00:00;;;;;;;36.60;24.98;;;;;;;15.11;40.80;102573.47;4986964;28;20241;-51
2022/03/25 10:02:28;;;;;;;38.78;25.02;;;;;;;15.19;40.97;102569.13;4987122;28;20526;-51
2022/03/25 10:04:56;;;;;;;38.38;24.25;;;;;;;15.17;41.33;102570.88;4985158;28;20754;-51
2022/03/25 10:07:23;;;;;;;35.58;24.02;;;;;;;15.15;41.58;102563.78;4987103;28;20234;-52
2022/03/25 10:10:00;;;;;;;37.70;25.50;;;;;;;15.15;41.68;102562.03;4986207;28;20230;-50
2022/03/25 10:12:27;;;;;;;36.95;24.23;;;;;;;15.23;41.77;102555.06;4986014;28;20323;-51
2022/03/25 10:15:12;;;;;;;34.53;25.00;;;;;;;15.13;42.42;102558.50;4982767;28;20292;-52
2022/03/25 10:17:50;;;;;;;39.33;24.92;;;;;;;15.16;42.39;102553.25;4986222;28;20237;-51
2022/03/25 10:20:17;;;;;;;44.65;26.30;;;;;;;15.26;42.17;102548.91;4985249;28;20238;-52
2022/03/25 10:23:11;;;;;;;38.03;26.55;;;;;;;14.99;42.78;102554.84;4985704;28;20276;-52
2022/03/25 10:25:41;;;;;;;34.38;25.13;;;;;;;14.85;43.01;102557.34;4947783;28;20739;-51
2022/03/25 10:28:28;;;;;;;42.55;27.23;;;;;;;15.02;42.94;102554.84;4985840;28;20234;-52
2022/03/25 10:30:56;;;;;;;38.70;25.27;;;;;;;15.24;42.93;102561.25;4985797;28;20252;-51
2022/03/25 10:33:29;;;;;;;39.15;27.40;;;;;;;15.35;42.14;102543.69;4985428;28;20575;-54
2022/03/25 10:35:57;;;;;;;37.70;25.52;;;;;;;15.33;42.11;102544.53;4984751;28;20242;-52
2022/03/25 10:38:25;;;;;;;38.88;27.60;;;;;;;15.44;42.05;102549.06;4986425;28;20328;-51
2022/03/25 10:40:52;;;;;;;36.53;26.70;;;;;;;15.47;41.97;102549.06;4985540;28;20245;-52
2022/03/25 10:43:18;;;;;;;37.85;25.15;;;;;;;15.51;41.73;102555.28;4985126;28;20240;-51
2022/03/25 10:45:46;;;;;;;31.50;25.20;;;;;;;15.44;42.01;102543.78;4984880;28;20330;-51
2022/03/25 10:48:16;;;;;;;40.65;26.45;;;;;;;15.47;42.11;102540.25;4984883;28;20238;-52
2022/03/25 10:51:01;;;;;;;41.58;27.67;;;;;;;15.71;41.32;102543.09;4981613;28;20231;-51
2022/03/25 10:53:30;;;;;;;32.50;23.75;;;;;;;15.64;41.72;102546.56;4984555;28;20237;-51
2022/03/25 10:55:59;;;;;;;39.25;25.15;;;;;;;15.83;41.62;102541.41;4983878;28;20245;-50
2022/03/25 10:58:26;;;;;;;32.25;24.85;;;;;;;15.90;40.81;102541.47;4978524;28;20237;-52
2022/03/25 11:00:52;;;;;;;34.17;26.05;;;;;;;15.93;40.38;102533.53;4981001;28;20229;-51
2022/03/25 11:03:19;;;;;;;33.95;27.17;;;;;;;16.05;40.17;102532.72;4977477;28;20434;-50
2022/03/25 11:05:45;;;;;;;35.45;23.83;;;;;;;16.20;39.92;102532.78;4983617;28;20231;-51
2022/03/25 11:08:13;;;;;;;35.35;25.13;;;;;;;16.31;40.05;102530.19;4986015;28;20241;-50
2022/03/25 11:10:40;;;;;;;36.45;25.38;;;;;;;16.22;39.90;102536.34;4972346;28;20239;-52
2022/03/25 11:13:08;;;;;;;34.05;24.40;;;;;;;16.16;39.82;102525.72;4980484;28;20238;-51
2022/03/25 11:15:35;;;;;;;30.77;24.65;;;;;;;15.94;40.66;102534.44;4985485;28;20484;-52
2022/03/25 11:18:02;;;;;;;29.42;22.17;;;;;;;16.01;40.74;102530.94;4976961;28;20328;-51
2022/03/25 11:20:29;;;;;;;28.88;22.10;;;;;;;16.26;40.08;102536.34;4979569;28;20234;-51